createdAt,value
2019-02-17T00:01:54.621Z,99.90
2019-02-17T00:04:23.854Z,99.90
2019-02-17T00:06:52.987Z,99.90
2019-02-17T00:09:22.258Z,99.90
2019-02-17T00:11:51.474Z,99.90
2019-02-17T00:14:20.711Z,99.90
2019-02-17T00:16:50.031Z,99.90
2019-02-17T00:19:19.311Z,99.90
2019-02-17T00:21:48.524Z,99.90
2019-02-17T00:24:17.779Z,99.90
2019-02-17T00:26:46.997Z,99.90
2019-02-17T00:29:16.190Z,99.90
2019-02-17T00:31:45.330Z,99.90
2019-02-17T00:34:14.583Z,99.90
2019-02-17T00:36:43.790Z,99.90
2019-02-17T00:39:13.041Z,99.90
2019-02-17T00:41:42.214Z,99.90
2019-02-17T00:44:11.382Z,99.80
2019-02-17T00:46:40.573Z,99.50
2019-02-17T00:49:09.834Z,99.40
2019-02-17T00:51:39.005Z,99.40
2019-02-17T00:54:08.186Z,99.40
2019-02-17T00:56:37.357Z,99.50
2019-02-17T00:59:10.225Z,99.60
2019-02-17T01:01:37.448Z,99.80
2019-02-17T01:04:06.685Z,99.80
2019-02-17T01:06:35.848Z,99.60
2019-02-17T01:09:06.584Z,99.50
2019-02-17T01:11:35.771Z,99.90
2019-02-17T01:14:04.989Z,99.80
2019-02-17T01:16:34.209Z,99.40
2019-02-17T01:19:03.443Z,99.80
2019-02-17T01:21:32.658Z,99.90
2019-02-17T01:24:02.340Z,99.90
2019-02-17T01:26:31.470Z,99.90
2019-02-17T01:29:00.656Z,99.90
2019-02-17T01:31:29.897Z,99.90
2019-02-17T01:34:00.524Z,99.90
2019-02-17T01:36:29.757Z,99.90
2019-02-17T01:38:59.098Z,99.90
2019-02-17T01:41:28.224Z,99.90
2019-02-17T01:43:57.469Z,99.90
2019-02-17T01:46:26.746Z,99.90
2019-02-17T01:48:56.007Z,99.90
2019-02-17T01:51:25.224Z,99.90
2019-02-17T01:53:54.409Z,99.90
2019-02-17T01:56:23.664Z,99.90
2019-02-17T01:58:52.909Z,99.90
2019-02-17T02:01:22.139Z,99.90
2019-02-17T02:03:51.317Z,99.90
2019-02-17T02:06:20.557Z,99.90
2019-02-17T02:08:49.828Z,99.90
2019-02-17T02:11:19.032Z,99.90
2019-02-17T02:13:48.293Z,99.90
2019-02-17T02:16:17.456Z,99.90
2019-02-17T02:18:46.589Z,99.90
2019-02-17T02:21:15.840Z,99.90
2019-02-17T02:23:44.994Z,99.90
2019-02-17T02:26:14.248Z,99.90
2019-02-17T02:28:43.484Z,99.90
2019-02-17T02:31:12.739Z,99.90
2019-02-17T02:33:41.957Z,99.90
2019-02-17T02:36:11.125Z,99.90
2019-02-17T02:38:40.409Z,99.90
2019-02-17T02:41:09.657Z,99.90
2019-02-17T02:43:38.945Z,99.90
2019-02-17T02:46:08.138Z,99.90
2019-02-17T02:48:37.386Z,99.90
2019-02-17T02:51:06.577Z,99.90
2019-02-17T02:53:35.712Z,99.90
2019-02-17T02:56:04.928Z,99.90
2019-02-17T02:58:34.080Z,99.90
2019-02-17T03:01:04.305Z,99.90
2019-02-17T03:03:33.538Z,99.90
2019-02-17T03:06:12.664Z,99.90
2019-02-17T03:08:41.896Z,99.90
2019-02-17T03:11:11.026Z,99.90
2019-02-17T03:13:40.193Z,99.90
2019-02-17T03:16:09.436Z,99.90
2019-02-17T03:18:38.621Z,99.90
2019-02-17T03:21:07.898Z,99.90
2019-02-17T03:23:37.100Z,99.90
2019-02-17T03:26:06.269Z,99.90
2019-02-17T03:28:35.415Z,99.90
2019-02-17T03:31:04.641Z,99.90
2019-02-17T03:33:33.803Z,99.90
2019-02-17T03:36:03.021Z,99.90
2019-02-17T03:38:32.165Z,99.90
2019-02-17T03:41:01.436Z,99.90
2019-02-17T03:43:30.568Z,99.90
2019-02-17T03:45:59.697Z,99.90
2019-02-17T03:48:28.854Z,99.90
2019-02-17T03:50:58.026Z,99.90
2019-02-17T03:53:27.233Z,99.90
2019-02-17T03:55:56.480Z,99.90
2019-02-17T03:58:25.752Z,99.90
2019-02-17T04:01:14.102Z,99.90
2019-02-17T04:03:43.415Z,99.90
2019-02-17T04:06:12.743Z,99.90
2019-02-17T04:08:42.102Z,99.90
2019-02-17T04:11:11.411Z,99.90
2019-02-17T04:13:40.781Z,99.90
2019-02-17T04:16:10.109Z,99.90
2019-02-17T04:18:39.402Z,99.90
2019-02-17T04:21:08.771Z,99.90
2019-02-17T04:23:37.953Z,99.90
2019-02-17T04:26:07.250Z,99.90
2019-02-17T04:28:36.504Z,99.90
2019-02-17T04:31:05.824Z,99.90
2019-02-17T04:33:35.122Z,99.90
2019-02-17T04:36:04.370Z,99.90
2019-02-17T04:38:33.652Z,99.90
2019-02-17T04:41:03.022Z,99.90
2019-02-17T04:43:32.337Z,99.90
2019-02-17T04:46:01.652Z,99.90
2019-02-17T04:48:30.883Z,99.90
2019-02-17T04:51:00.299Z,99.90
2019-02-17T04:53:29.654Z,99.90
2019-02-17T04:55:58.937Z,99.90
2019-02-17T04:58:28.216Z,99.90
2019-02-17T05:00:57.487Z,99.90
2019-02-17T05:03:26.830Z,99.90
2019-02-17T05:05:56.110Z,99.90
2019-02-17T05:08:25.373Z,99.90
2019-02-17T05:10:54.703Z,99.90
2019-02-17T05:13:24.170Z,99.90
2019-02-17T05:15:53.440Z,99.90
2019-02-17T05:18:22.712Z,99.90
2019-02-17T05:20:52.293Z,99.90
2019-02-17T05:23:21.616Z,99.90
2019-02-17T05:25:51.102Z,99.90
2019-02-17T05:28:20.406Z,99.90
2019-02-17T05:30:52.791Z,99.90
2019-02-17T05:33:20.977Z,99.90
2019-02-17T05:35:53.352Z,99.90
2019-02-17T05:38:22.746Z,99.90
2019-02-17T05:40:52.253Z,99.90
2019-02-17T05:43:21.762Z,99.90
2019-02-17T05:45:54.168Z,99.90
2019-02-17T05:48:23.434Z,99.90
2019-02-17T05:50:52.668Z,99.90
2019-02-17T05:53:21.967Z,99.90
2019-02-17T05:55:51.229Z,99.90
2019-02-17T05:58:20.663Z,99.90
2019-02-17T06:00:50.262Z,99.90
2019-02-17T06:03:21.640Z,99.90
2019-02-17T06:05:50.933Z,99.90
2019-02-17T06:08:22.407Z,99.90
2019-02-17T06:10:51.743Z,99.90
2019-02-17T06:13:21.017Z,99.90
2019-02-17T06:15:53.493Z,99.90
2019-02-17T06:18:22.751Z,99.90
2019-02-17T06:20:54.938Z,99.90
2019-02-17T06:23:24.169Z,99.90
2019-02-17T06:25:53.434Z,99.90
2019-02-17T06:28:22.742Z,99.90
2019-02-17T06:30:52.107Z,99.90
2019-02-17T06:33:21.600Z,99.90
2019-02-17T06:35:51.006Z,99.90
2019-02-17T06:38:20.304Z,99.90
2019-02-17T06:40:49.888Z,99.90
2019-02-17T06:43:19.208Z,99.90
2019-02-17T06:45:48.491Z,99.90
2019-02-17T06:48:17.797Z,99.90
2019-02-17T06:50:47.048Z,99.90
2019-02-17T06:53:17.975Z,99.90
2019-02-17T06:56:02.742Z,99.90
2019-02-17T06:58:32.090Z,99.90
2019-02-17T07:01:02.169Z,99.90
2019-02-17T07:03:33.333Z,99.90
2019-02-17T07:06:23.680Z,99.90
2019-02-17T07:08:52.976Z,99.90
2019-02-17T07:11:25.477Z,99.90
2019-02-17T07:13:54.762Z,99.90
2019-02-17T07:16:24.314Z,99.90
2019-02-17T07:18:57.400Z,99.90
2019-02-17T07:21:26.696Z,99.90
2019-02-17T07:23:56.006Z,99.90
2019-02-17T07:26:25.278Z,99.90
2019-02-17T07:28:54.523Z,99.90
2019-02-17T07:31:23.741Z,99.90
2019-02-17T07:33:53.184Z,99.90
2019-02-17T07:36:22.443Z,99.90
2019-02-17T07:38:51.689Z,99.90
2019-02-17T07:41:21.003Z,99.90
2019-02-17T07:43:50.288Z,99.90
2019-02-17T07:46:19.706Z,99.90
2019-02-17T07:48:48.981Z,99.90
2019-02-17T07:51:18.222Z,99.90
2019-02-17T07:53:47.533Z,99.90
2019-02-17T07:56:16.800Z,99.90
2019-02-17T07:58:46.143Z,99.90
2019-02-17T08:01:15.390Z,99.90
2019-02-17T08:03:48.834Z,99.90
2019-02-17T08:06:18.098Z,99.90
2019-02-17T08:08:47.404Z,99.90
2019-02-17T08:11:16.605Z,99.90
2019-02-17T08:13:45.900Z,99.90
2019-02-17T08:16:15.161Z,99.90
2019-02-17T08:18:44.598Z,99.90
2019-02-17T08:21:13.906Z,99.90
2019-02-17T08:23:43.177Z,99.90
2019-02-17T08:26:12.475Z,99.90
2019-02-17T08:28:42.635Z,99.90
2019-02-17T08:31:12.029Z,99.20
2019-02-17T08:33:41.390Z,99.90
2019-02-17T08:36:10.648Z,99.90
2019-02-17T08:38:39.931Z,99.90
2019-02-17T08:41:09.373Z,99.90
2019-02-17T08:43:40.528Z,99.90
2019-02-17T08:46:11.142Z,99.70
2019-02-17T08:48:40.409Z,99.90
2019-02-17T08:51:09.802Z,99.90
2019-02-17T08:53:46.252Z,99.90
2019-02-17T08:56:15.579Z,99.90
2019-02-17T08:58:44.848Z,99.90
2019-02-17T09:01:16.954Z,99.90
2019-02-17T09:03:46.253Z,99.90
2019-02-17T09:06:19.316Z,99.90
2019-02-17T09:08:48.746Z,99.90
2019-02-17T09:11:21.215Z,99.90
2019-02-17T09:13:50.546Z,99.90
2019-02-17T09:16:19.814Z,99.90
2019-02-17T09:18:49.122Z,99.90
2019-02-17T09:21:18.529Z,99.90
2019-02-17T09:23:50.822Z,98.50
2019-02-17T09:26:20.169Z,98.80
2019-02-17T09:28:49.462Z,97.30
2019-02-17T09:31:18.911Z,97.40
2019-02-17T09:34:07.263Z,98.70
2019-02-17T09:36:36.415Z,96.70
2019-02-17T09:39:11.548Z,95.90
2019-02-17T09:41:40.730Z,94.90
2019-02-17T09:44:09.982Z,96.10
2019-02-17T09:46:39.184Z,95.80
2019-02-17T09:49:08.537Z,94.50
2019-02-17T09:51:37.806Z,93.90
2019-02-17T09:54:07.086Z,93.40
2019-02-17T09:56:36.349Z,93.90
2019-02-17T09:59:05.533Z,93.20
2019-02-17T10:01:34.805Z,93.10
2019-02-17T10:04:04.028Z,92.70
2019-02-17T10:06:33.248Z,92.60
2019-02-17T10:09:04.097Z,91.80
2019-02-17T10:11:33.274Z,92.30
2019-02-17T10:14:02.563Z,92.70
2019-02-17T10:16:31.782Z,93.00
2019-02-17T10:19:01.023Z,93.00
2019-02-17T10:21:30.290Z,93.20
2019-02-17T10:23:59.540Z,93.10
2019-02-17T10:26:28.733Z,93.20
2019-02-17T10:28:57.895Z,93.20
2019-02-17T10:31:27.208Z,93.10
2019-02-17T10:33:56.500Z,92.90
2019-02-17T10:36:25.669Z,92.80
2019-02-17T10:38:54.887Z,92.60
2019-02-17T10:41:24.102Z,92.50
2019-02-17T10:43:53.269Z,91.70
2019-02-17T10:46:22.432Z,91.80
2019-02-17T10:48:51.719Z,91.60
2019-02-17T10:51:20.964Z,90.30
2019-02-17T10:53:50.229Z,90.20
2019-02-17T10:56:19.581Z,88.00
2019-02-17T10:58:48.752Z,88.30
2019-02-17T11:01:17.981Z,87.00
2019-02-17T11:04:07.593Z,85.00
2019-02-17T11:06:36.832Z,85.50
2019-02-17T11:09:17.572Z,83.20
2019-02-17T11:11:46.836Z,84.80
2019-02-17T11:14:16.463Z,84.40
2019-02-17T11:16:45.819Z,82.40
2019-02-17T11:19:15.170Z,81.80
2019-02-17T11:21:44.496Z,82.30
2019-02-17T11:24:13.886Z,81.50
2019-02-17T11:26:43.208Z,81.40
2019-02-17T11:29:12.557Z,80.90
2019-02-17T11:31:42.294Z,81.40
2019-02-17T11:34:11.875Z,80.90
2019-02-17T11:36:41.199Z,78.40
2019-02-17T11:39:17.635Z,81.30
2019-02-17T11:41:47.012Z,80.50
2019-02-17T11:44:16.550Z,78.80
2019-02-17T11:46:45.810Z,78.20
2019-02-17T11:49:15.175Z,77.70
2019-02-17T11:51:44.451Z,78.10
2019-02-17T11:54:13.832Z,77.60
2019-02-17T11:56:43.103Z,74.40
2019-02-17T11:59:12.380Z,76.20
2019-02-17T12:01:41.747Z,74.90
2019-02-17T12:04:11.077Z,74.70
2019-02-17T12:06:40.664Z,75.30
2019-02-17T12:09:11.987Z,73.00
2019-02-17T12:11:41.289Z,69.70
2019-02-17T12:14:10.632Z,67.10
2019-02-17T12:16:40.013Z,69.70
2019-02-17T12:19:09.323Z,68.40
2019-02-17T12:22:12.706Z,69.10
2019-02-17T12:25:03.838Z,66.10
2019-02-17T12:27:58.241Z,68.60
2019-02-17T12:30:27.595Z,69.00
2019-02-17T12:32:56.959Z,67.50
2019-02-17T12:35:26.247Z,67.10
2019-02-17T12:37:55.534Z,67.00
2019-02-17T12:40:24.892Z,66.30
2019-02-17T12:42:54.237Z,65.50
2019-02-17T12:45:23.592Z,64.90
2019-02-17T12:47:58.246Z,64.00
2019-02-17T12:50:23.997Z,63.20
2019-02-17T12:52:53.384Z,63.40
2019-02-17T12:55:22.853Z,63.50
2019-02-17T12:57:52.166Z,62.80
2019-02-17T13:00:24.492Z,63.00
2019-02-17T13:02:53.818Z,62.30
2019-02-17T13:05:23.138Z,61.50
2019-02-17T13:07:52.651Z,62.40
2019-02-17T13:10:21.962Z,58.10
2019-02-17T13:12:51.332Z,59.10
2019-02-17T13:15:20.706Z,60.10
2019-02-17T13:17:50.093Z,59.30
2019-02-17T13:20:19.900Z,59.30
2019-02-17T13:22:49.255Z,60.10
2019-02-17T13:25:18.564Z,61.70
2019-02-17T13:27:47.873Z,63.30
2019-02-17T13:30:19.408Z,64.50
2019-02-17T13:32:48.724Z,65.30
2019-02-17T13:35:18.052Z,65.20
2019-02-17T13:37:47.351Z,65.40
2019-02-17T13:40:16.684Z,65.20
2019-02-17T13:42:46.064Z,65.20
2019-02-17T13:45:15.375Z,66.30
2019-02-17T13:47:44.651Z,66.00
2019-02-17T13:50:14.137Z,65.70
2019-02-17T13:52:43.448Z,65.60
2019-02-17T13:55:12.776Z,65.40
2019-02-17T13:57:42.084Z,65.20
2019-02-17T14:00:13.557Z,65.30
2019-02-17T14:02:42.845Z,65.50
2019-02-17T14:05:12.161Z,65.50
2019-02-17T14:07:41.484Z,67.10
2019-02-17T14:10:11.254Z,67.90
2019-02-17T14:12:40.848Z,69.40
2019-02-17T14:15:12.280Z,70.00
2019-02-17T14:17:41.634Z,70.00
2019-02-17T14:20:11.281Z,70.40
2019-02-17T14:22:40.606Z,71.20
2019-02-17T14:25:11.014Z,70.60
2019-02-17T14:27:40.727Z,68.80
2019-02-17T14:30:11.667Z,68.80
2019-02-17T14:32:40.964Z,67.00
2019-02-17T14:35:10.644Z,65.50
2019-02-17T14:37:40.004Z,64.50
2019-02-17T14:40:09.449Z,64.30
2019-02-17T14:42:41.089Z,65.10
2019-02-17T14:45:10.963Z,66.30
2019-02-17T14:47:40.299Z,66.40
2019-02-17T14:50:09.732Z,66.80
2019-02-17T14:52:39.007Z,68.30
2019-02-17T14:55:08.324Z,68.70
2019-02-17T14:57:38.571Z,68.30
2019-02-17T15:00:08.434Z,67.60
2019-02-17T15:02:37.715Z,68.50
2019-02-17T15:05:07.695Z,67.90
2019-02-17T15:07:37.066Z,68.50
2019-02-17T15:10:08.781Z,68.40
2019-02-17T15:12:38.247Z,67.90
2019-02-17T15:15:08.540Z,67.10
2019-02-17T15:17:37.838Z,67.10
2019-02-17T15:20:09.670Z,66.30
2019-02-17T15:22:39.034Z,67.40
2019-02-17T15:25:09.478Z,66.90
2019-02-17T15:27:38.939Z,67.20
2019-02-17T15:30:10.213Z,67.80
2019-02-17T15:32:39.518Z,67.10
2019-02-17T15:35:08.817Z,67.00
2019-02-17T15:37:38.129Z,66.90
2019-02-17T15:40:08.158Z,66.60
2019-02-17T15:42:37.493Z,66.20
2019-02-17T15:45:07.989Z,66.50
2019-02-17T15:47:37.299Z,66.70
2019-02-17T15:50:07.726Z,66.70
2019-02-17T15:52:37.030Z,66.50
2019-02-17T15:55:07.301Z,66.40
2019-02-17T15:57:36.678Z,66.50
2019-02-17T16:00:07.985Z,66.90
2019-02-17T16:02:37.350Z,67.60
2019-02-17T16:05:06.953Z,68.50
2019-02-17T16:07:36.302Z,69.50
2019-02-17T16:10:06.557Z,69.40
2019-02-17T16:12:35.838Z,70.50
2019-02-17T16:15:06.022Z,70.60
2019-02-17T16:17:47.101Z,70.90
2019-02-17T16:20:16.820Z,71.40
2019-02-17T16:22:46.136Z,71.70
2019-02-17T16:25:15.541Z,72.00
2019-02-17T16:27:45.606Z,72.40
2019-02-17T16:30:16.665Z,72.80
2019-02-17T16:32:46.940Z,73.10
2019-02-17T16:35:16.837Z,73.00
2019-02-17T16:37:46.473Z,73.20
2019-02-17T16:40:16.001Z,73.30
2019-02-17T16:42:45.564Z,74.10
2019-02-17T16:45:15.270Z,76.30
2019-02-17T16:47:44.679Z,77.40
2019-02-17T16:50:16.513Z,78.20
2019-02-17T16:52:46.095Z,79.80
2019-02-17T16:55:15.875Z,81.10
2019-02-17T16:57:45.815Z,80.90
2019-02-17T17:00:21.705Z,80.80
2019-02-17T17:02:51.617Z,80.40
2019-02-17T17:05:21.151Z,80.60
2019-02-17T17:07:50.704Z,79.20
2019-02-17T17:10:20.151Z,78.40
2019-02-17T17:12:49.558Z,78.40
2019-02-17T17:15:18.990Z,78.50
2019-02-17T17:17:48.692Z,78.30
2019-02-17T17:20:18.291Z,82.70
2019-02-17T17:22:48.090Z,84.30
2019-02-17T17:25:17.807Z,83.50
2019-02-17T17:27:47.364Z,83.80
2019-02-17T17:30:16.855Z,84.80
2019-02-17T17:32:48.981Z,85.20
2019-02-17T17:35:18.530Z,85.50
2019-02-17T17:37:48.100Z,85.30
2019-02-17T17:40:19.055Z,85.50
2019-02-17T17:42:48.508Z,85.80
2019-02-17T17:45:18.112Z,86.80
2019-02-17T17:47:47.604Z,86.10
2019-02-17T17:50:19.139Z,87.50
2019-02-17T17:52:48.722Z,87.10
2019-02-17T17:55:18.360Z,87.10
2019-02-17T17:57:48.013Z,89.00
2019-02-17T18:00:19.880Z,90.20
2019-02-17T18:02:49.502Z,90.70
2019-02-17T18:05:19.087Z,91.20
2019-02-17T18:07:48.960Z,91.70
2019-02-17T18:10:19.051Z,92.20
2019-02-17T18:12:48.646Z,92.70
2019-02-17T18:15:18.503Z,93.00
2019-02-17T18:17:54.338Z,92.80
2019-02-17T18:20:19.530Z,92.90
2019-02-17T18:22:49.034Z,92.30
2019-02-17T18:25:18.596Z,91.90
2019-02-17T18:27:48.231Z,92.50
2019-02-17T18:30:18.289Z,92.60
2019-02-17T18:32:48.032Z,92.00
2019-02-17T18:35:20.085Z,92.20
2019-02-17T18:37:49.210Z,91.60
2019-02-17T18:40:18.907Z,91.10
2019-02-17T18:42:48.477Z,90.30
2019-02-17T18:45:18.019Z,89.00
2019-02-17T18:47:47.455Z,88.60
2019-02-17T18:50:16.925Z,87.00
2019-02-17T18:52:46.502Z,87.00
2019-02-17T18:55:16.070Z,85.70
2019-02-17T18:57:49.963Z,85.70
2019-02-17T19:00:17.396Z,86.50
2019-02-17T19:02:46.771Z,85.90
2019-02-17T19:05:16.708Z,87.30
2019-02-17T19:07:46.169Z,88.90
2019-02-17T19:10:15.606Z,90.80
2019-02-17T19:12:45.058Z,91.50
2019-02-17T19:15:14.662Z,92.00
2019-02-17T19:17:44.015Z,92.30
2019-02-17T19:20:15.691Z,92.60
2019-02-17T19:22:44.980Z,92.70
2019-02-17T19:25:14.464Z,92.80
2019-02-17T19:27:43.839Z,92.90
2019-02-17T19:30:14.388Z,93.20
2019-02-17T19:32:43.669Z,93.50
2019-02-17T19:35:13.560Z,93.50
2019-02-17T19:37:43.496Z,93.80
2019-02-17T19:40:13.496Z,93.60
2019-02-17T19:42:43.311Z,93.70
2019-02-17T19:45:13.272Z,94.60
2019-02-17T19:47:42.938Z,95.10
2019-02-17T19:50:12.519Z,95.50
2019-02-17T19:52:41.808Z,95.80
2019-02-17T19:55:11.291Z,95.90
2019-02-17T19:57:40.692Z,95.70
2019-02-17T20:00:11.698Z,95.60
2019-02-17T20:03:02.340Z,95.50
2019-02-17T20:05:35.352Z,95.30
2019-02-17T20:08:04.815Z,95.10
2019-02-17T20:10:34.191Z,94.50
2019-02-17T20:13:08.234Z,94.50
2019-02-17T20:15:37.152Z,94.60
2019-02-17T20:18:06.703Z,94.30
2019-02-17T20:20:36.176Z,92.80
2019-02-17T20:23:05.739Z,91.90
2019-02-17T20:25:35.296Z,90.90
2019-02-17T20:28:04.658Z,90.90
2019-02-17T20:30:33.992Z,90.50
2019-02-17T20:33:03.363Z,89.20
2019-02-17T20:35:32.698Z,87.90
2019-02-17T20:38:02.523Z,88.50
2019-02-17T20:40:31.867Z,87.40
2019-02-17T20:43:01.166Z,87.70
2019-02-17T20:45:30.549Z,89.80
2019-02-17T20:47:59.850Z,89.50
2019-02-17T20:50:29.139Z,90.10
2019-02-17T20:52:58.468Z,89.50
2019-02-17T20:55:27.791Z,90.70
2019-02-17T20:57:57.062Z,90.90
2019-02-17T21:00:27.835Z,90.50
2019-02-17T21:02:57.266Z,91.30
2019-02-17T21:05:26.556Z,91.90
2019-02-17T21:07:55.812Z,91.60
2019-02-17T21:10:25.112Z,91.60
2019-02-17T21:12:54.398Z,91.80
2019-02-17T21:15:24.478Z,92.00
2019-02-17T21:17:53.783Z,92.30
2019-02-17T21:20:23.360Z,92.20
2019-02-17T21:22:53.189Z,93.20
2019-02-17T21:25:22.670Z,94.40
2019-02-17T21:27:52.062Z,95.00
2019-02-17T21:30:21.374Z,95.10
2019-02-17T21:32:50.670Z,95.60
2019-02-17T21:35:20.036Z,95.80
2019-02-17T21:37:49.393Z,95.60
2019-02-17T21:40:18.715Z,95.40
2019-02-17T21:42:48.048Z,95.10
2019-02-17T21:45:17.424Z,95.00
2019-02-17T21:47:46.769Z,94.70
2019-02-17T21:50:16.143Z,94.80
2019-02-17T21:52:45.443Z,94.50
2019-02-17T21:55:14.767Z,94.30
2019-02-17T21:57:44.164Z,95.10
2019-02-17T22:00:15.943Z,95.20
2019-02-17T22:02:45.292Z,95.20
2019-02-17T22:05:14.680Z,95.90
2019-02-17T22:07:44.006Z,96.00
2019-02-17T22:10:13.464Z,96.60
2019-02-17T22:12:42.852Z,97.10
2019-02-17T22:15:13.937Z,96.80
2019-02-17T22:17:43.259Z,96.70
2019-02-17T22:20:12.876Z,96.70
2019-02-17T22:22:42.299Z,97.00
2019-02-17T22:25:13.065Z,97.40
2019-02-17T22:27:42.414Z,97.30
2019-02-17T22:30:11.836Z,97.40
2019-02-17T22:32:41.245Z,97.40
2019-02-17T22:35:10.690Z,97.30
2019-02-17T22:37:42.163Z,96.70
2019-02-17T22:40:11.607Z,96.80
2019-02-17T22:42:40.883Z,96.80
2019-02-17T22:45:10.311Z,96.90
2019-02-17T22:47:39.748Z,96.90
2019-02-17T22:50:09.717Z,96.90
2019-02-17T22:52:39.150Z,96.90
2019-02-17T22:55:10.906Z,96.80
2019-02-17T22:57:40.228Z,96.30
2019-02-17T23:01:08.412Z,96.30
2019-02-17T23:03:37.679Z,96.20
2019-02-17T23:06:07.052Z,95.70
2019-02-17T23:08:36.365Z,95.20
2019-02-17T23:11:05.726Z,93.10
2019-02-17T23:13:54.030Z,93.70
2019-02-17T23:16:25.370Z,93.20
2019-02-17T23:18:54.530Z,92.90
2019-02-17T23:21:23.751Z,92.90
2019-02-17T23:23:53.045Z,92.70
2019-02-17T23:26:22.204Z,92.30
2019-02-17T23:28:51.345Z,92.20
2019-02-17T23:31:20.625Z,91.70
2019-02-17T23:33:49.826Z,91.30
2019-02-17T23:36:19.045Z,91.60
2019-02-17T23:38:48.262Z,92.10
2019-02-17T23:41:17.515Z,93.00
2019-02-17T23:43:46.652Z,93.40
2019-02-17T23:46:15.878Z,93.70
2019-02-17T23:48:45.109Z,93.30
2019-02-17T23:51:14.216Z,93.60
2019-02-17T23:53:43.375Z,93.40
2019-02-17T23:56:12.500Z,93.10
2019-02-17T23:58:41.736Z,93.50
